^^
Datos históricos de la estación: Murcia-Puente Tocinos
Diario Informe para Octubre 22, 2021 Unidades:  Métrico    Ingés   Ambas
Diario Semanal Mensual Anual
  Máxima: Mínima: Promedio:
Temperatura: 21.3 °C 16.1 °C 18.8 °C
Punto de rocio: 18.1 °C 13.6 °C 16.3 °C
Humedad: 94% 78% 86%
Velocidad viento: 18.3km/h 0km/h 6.2km/h
Racha viento: 38.9km/h - -
Viento- - SE
Presión: 1019.0 hPa 1013.0 hPa -
Precipitación: 15.9 mm    
 
 
Tabla de datos para Octubre 22, 2021
Hora Temperatura Punto de rocio Presión Viento Velocidad viento Racha viento Humedad Intensidad lluvia(por hora) Nubes
00:04 21.3 °C 17.9 °C 1014.4 hPa NE 8.4 km/h 16.7 km/h 81% 0.0 mm
00:09 21.3 °C 17.9 °C 1014.5 hPa NE 8.5 km/h 14.8 km/h 81% 0.0 mm
00:14 21.3 °C 17.9 °C 1014.5 hPa NE 8.7 km/h 17.2 km/h 81% 0.0 mm
00:19 21.2 °C 17.8 °C 1014.5 hPa NE 8.6 km/h 14.8 km/h 81% 0.0 mm
00:24 21.2 °C 17.9 °C 1014.5 hPa NE 8.4 km/h 14.8 km/h 81.2% 0.0 mm
00:29 21.2 °C 18 °C 1014.5 hPa NE 8.5 km/h 16.7 km/h 82% 0.0 mm
00:34 21.2 °C 17.9 °C 1014.5 hPa NE 8.7 km/h 13 km/h 82% 0.0 mm
00:39 21.1 °C 17.9 °C 1014.5 hPa NE 8.3 km/h 13.7 km/h 82% 0.0 mm
00:44 21.1 °C 17.9 °C 1014.4 hPa NE 7.6 km/h 13 km/h 82% 0.0 mm
00:49 21.1 °C 17.9 °C 1014.4 hPa NE 7.3 km/h 13.7 km/h 82% 0.0 mm
00:54 21 °C 17.9 °C 1014.4 hPa NE 6.9 km/h 18.3 km/h 82% 0.0 mm
00:59 21 °C 17.8 °C 1014.3 hPa NE 7.2 km/h 18.5 km/h 82% 0.0 mm
01:04 21 °C 17.8 °C 1014.3 hPa NE 7.6 km/h 13 km/h 82% 0.0 mm
01:09 21 °C 17.8 °C 1014.3 hPa NNE 7.8 km/h 11.1 km/h 82.3% 0.0 mm
01:14 20.9 °C 17.9 °C 1014.2 hPa NE 8.4 km/h 11.1 km/h 83% 0.0 mm
01:19 20.9 °C 17.9 °C 1014.2 hPa NNE 7.7 km/h 11.1 km/h 83% 0.0 mm
01:24 20.9 °C 17.9 °C 1014.2 hPa NNE 6.4 km/h 10 km/h 83% 0.0 mm
01:29 20.8 °C 17.8 °C 1014.2 hPa NNE 6.4 km/h 9.5 km/h 83% 0.0 mm
01:34 20.8 °C 17.8 °C 1014.2 hPa NNE 6.4 km/h 8.4 km/h 83% 0.0 mm
01:39 20.7 °C 17.9 °C 1014.2 hPa NNE 5.9 km/h 7.4 km/h 84% 0.0 mm
01:44 20.7 °C 17.9 °C 1014.1 hPa NNE 5 km/h 7.6 km/h 84% 0.0 mm
01:49 20.7 °C 17.9 °C 1014.1 hPa North 5 km/h 8.4 km/h 84% 0.0 mm
01:54 20.6 °C 17.8 °C 1014.1 hPa North 5 km/h 5.8 km/h 84% 0.0 mm
01:59 20.6 °C 17.8 °C 1014.1 hPa NNE 4.3 km/h 7.4 km/h 84% 0.0 mm
02:04 20.6 °C 17.9 °C 1014.1 hPa NNE 3.2 km/h 7.4 km/h 84.7% 0.0 mm
02:09 20.6 °C 18 °C 1014.1 hPa NNE 3.7 km/h 7.4 km/h 85% 0.0 mm
02:14 20.6 °C 18 °C 1014.1 hPa North 4.7 km/h 7.4 km/h 85% 0.0 mm
02:19 20.5 °C 17.9 °C 1014.1 hPa NNO 4.4 km/h 7.4 km/h 85% 0.0 mm
02:24 20.5 °C 17.9 °C 1014.1 hPa NNO 3.9 km/h 6.4 km/h 85% 0.0 mm
02:29 20.5 °C 17.9 °C 1014.0 hPa NNE 3.9 km/h 8.4 km/h 85% 0.0 mm
02:34 20.5 °C 17.9 °C 1014.0 hPa NNE 3.9 km/h 7.6 km/h 85.1% 0.0 mm
02:39 20.5 °C 18.1 °C 1014.0 hPa NNE 4.1 km/h 7.6 km/h 86% 0.0 mm
02:44 20.4 °C 18 °C 1013.9 hPa NNE 4.7 km/h 7.4 km/h 86% 0.0 mm
02:49 20.4 °C 18 °C 1013.9 hPa North 4.7 km/h 7.4 km/h 86% 0.0 mm
02:54 20.4 °C 18 °C 1013.9 hPa NNO 4.7 km/h 7.4 km/h 86% 0.0 mm
02:59 20.3 °C 17.9 °C 1013.8 hPa NO 4.1 km/h 5.8 km/h 86% 0.0 mm
03:04 20.3 °C 17.9 °C 1013.8 hPa NO 3.2 km/h 7.4 km/h 86% 0.0 mm
03:09 20.3 °C 17.9 °C 1013.8 hPa NO 3.7 km/h 9.5 km/h 86% 0.0 mm
03:14 20.3 °C 17.9 °C 1013.7 hPa NO 4.7 km/h 8.4 km/h 86% 0.0 mm
03:19 20.2 °C 17.8 °C 1013.7 hPa ONO 4.7 km/h 7.6 km/h 86% 0.0 mm
03:24 20.1 °C 17.7 °C 1013.7 hPa NO 4.7 km/h 8.4 km/h 86% 0.0 mm
03:29 20.1 °C 17.7 °C 1013.7 hPa NNO 4.7 km/h 7.4 km/h 86% 0.0 mm
03:34 20 °C 17.6 °C 1013.7 hPa NO 4.7 km/h 7.4 km/h 86% 0.0 mm
03:39 20 °C 17.6 °C 1013.7 hPa ONO 4.7 km/h 9.5 km/h 86% 0.0 mm
03:44 19.9 °C 17.7 °C 1013.5 hPa ONO 4.7 km/h 7.4 km/h 87% 0.0 mm
03:49 19.9 °C 17.7 °C 1013.5 hPa ONO 4.7 km/h 7.4 km/h 87% 0.0 mm
03:54 19.9 °C 17.7 °C 1013.5 hPa ONO 4.7 km/h 5.6 km/h 87% 0.0 mm
03:59 20 °C 17.8 °C 1013.5 hPa ONO 4 km/h 5.6 km/h 87% 0.0 mm
04:04 20 °C 17.8 °C 1013.5 hPa NO 2.9 km/h 5.8 km/h 87% 0.0 mm
04:09 20 °C 17.8 °C 1013.5 hPa NO 3 km/h 5.6 km/h 87% 0.0 mm
04:14 20 °C 17.8 °C 1013.4 hPa NNO 3.2 km/h 7.4 km/h 87% 0.0 mm
04:19 20 °C 17.8 °C 1013.4 hPa NNE 3.1 km/h 7.4 km/h 87% 0.0 mm
04:24 20.1 °C 18 °C 1013.4 hPa ENE 2.9 km/h 5.8 km/h 87.6% 0.0 mm
04:29 20.1 °C 18.1 °C 1013.4 hPa ENE 3.2 km/h 7.4 km/h 88% 0.0 mm
04:34 20.1 °C 18.1 °C 1013.4 hPa NE 3.9 km/h 7.4 km/h 88% 0.0 mm
04:39 20.1 °C 18.1 °C 1013.4 hPa NE 3.5 km/h 4.7 km/h 88% 0.0 mm
04:44 20 °C 17.9 °C 1013.2 hPa NE 2.9 km/h   87.4% 0.0 mm
04:49 19.9 °C 17.8 °C 1013.2 hPa NE 1.9 km/h   87.7% 0.0 mm
04:54 19.9 °C 17.8 °C 1013.2 hPa Calm     88% 0.0 mm
04:59 19.9 °C 17.8 °C 1013.1 hPa Calm     88% 0.0 mm
05:04 19.9 °C 17.8 °C 1013.1 hPa Calm     88% 0.0 mm
05:09 19.9 °C 17.8 °C 1013.1 hPa Calm     88% 0.0 mm
05:14 19.9 °C 17.8 °C 1013.1 hPa Calm     88% 0.0 mm
05:19 19.9 °C 17.8 °C 1013.1 hPa Calm     88% 0.0 mm
05:24 19.9 °C 17.8 °C 1013.1 hPa Calm   3.9 km/h 88% 0.0 mm
05:29 19.9 °C 17.8 °C 1013.0 hPa Calm   2.3 km/h 88% 0.0 mm
05:34 19.9 °C 17.8 °C 1013.0 hPa Calm   2.3 km/h 88% 0.0 mm
05:39 19.9 °C 17.8 °C 1013.1 hPa Calm     88% 0.0 mm
05:44 19.9 °C 17.8 °C 1013.1 hPa Calm     88% 0.0 mm
05:49 19.9 °C 17.8 °C 1013.1 hPa Calm   4.7 km/h 88% 0.0 mm
05:54 19.9 °C 17.8 °C 1013.1 hPa Calm   4.7 km/h 88% 0.0 mm
05:59 19.9 °C 17.8 °C 1013.1 hPa NE 0.9 km/h 3.7 km/h 88% 0.0 mm
06:04 19.9 °C 17.8 °C 1013.1 hPa NE 2.3 km/h   88% 0.0 mm
06:09 19.9 °C 17.9 °C 1013.2 hPa NE 1.5 km/h   88% 0.0 mm
06:14 20 °C 17.9 °C 1013.2 hPa Calm     88% 0.0 mm
06:19 20 °C 17.9 °C 1013.2 hPa Calm   3.9 km/h 88% 0.0 mm
06:24 20 °C 17.9 °C 1013.2 hPa Calm   5.6 km/h 88% 0.0 mm
06:29 20 °C 18 °C 1013.1 hPa NE 0.8 km/h 4.7 km/h 88% 0.0 mm
06:34 20.1 °C 17.8 °C 1013.1 hPa NE 2.3 km/h 4.7 km/h 87% 0.0 mm
06:39 20 °C 17.8 °C 1013.2 hPa NE 2.5 km/h 4.7 km/h 87% 0.0 mm
06:44 20 °C 17.8 °C 1013.2 hPa NE 2.9 km/h 5.6 km/h 87% 0.0 mm
06:49 19.9 °C 17.7 °C 1013.2 hPa NE 2.9 km/h 6.4 km/h 87% 0.0 mm
06:54 19.9 °C 17.7 °C 1013.2 hPa NNE 2.9 km/h 7.4 km/h 87% 0.0 mm
06:59 19.9 °C 17.7 °C 1013.2 hPa NNE 3.3 km/h 7.4 km/h 87% 0.0 mm
07:04 19.9 °C 17.7 °C 1013.2 hPa NNE 3.9 km/h 8.4 km/h 87% 0.0 mm
07:09 19.8 °C 17.6 °C 1013.2 hPa NE 4.3 km/h 8.4 km/h 87% 0.0 mm
07:14 19.8 °C 17.6 °C 1013.2 hPa NE 5 km/h 7.4 km/h 87% 0.0 mm
07:19 19.8 °C 17.6 °C 1013.2 hPa Este 4.6 km/h 7.6 km/h 87.1% 0.0 mm
07:24 19.8 °C 17.8 °C 1013.2 hPa Este 3.9 km/h 7.4 km/h 88% 0.0 mm
07:29 19.7 °C 17.6 °C 1013.2 hPa Este 4.1 km/h 9.5 km/h 87.4% 0.0 mm
07:34 19.7 °C 17.7 °C 1013.2 hPa ESE 4.7 km/h 7.4 km/h 88% 0.0 mm
07:39 19.7 °C 17.7 °C 1013.2 hPa ESE 4.2 km/h 3.7 km/h 88% 0.0 mm
07:44 19.7 °C 17.7 °C 1013.2 hPa ESE 3.2 km/h   88% 0.0 mm
07:49 19.7 °C 17.6 °C 1013.2 hPa ESE 2.1 km/h 5 km/h 87.6% 0.0 mm
07:54 19.6 °C 17.4 °C 1013.2 hPa Calm   7.4 km/h 87.1% 0.0 mm
07:59 19.7 °C 17.6 °C 1013.2 hPa SSE 1.1 km/h 5.6 km/h 87.7% 0.0 mm
08:04 19.7 °C 17.5 °C 1013.2 hPa SSE 2.9 km/h 5.6 km/h 87% 0.0 mm
08:09 19.7 °C 17.5 °C 1013.2 hPa ONO 2.9 km/h 5.6 km/h 87% 0.0 mm
08:14 19.7 °C 17.5 °C 1013.1 hPa ONO 2.9 km/h 3.7 km/h 87% 0.0 mm
08:19 19.7 °C 17.4 °C 1013.1 hPa ONO 2.7 km/h 4.7 km/h 86.5% 0.0 mm
08:24 19.7 °C 17.2 °C 1013.1 hPa ONO 2.3 km/h 4.7 km/h 85.7% 0.0 mm
08:29 19.6 °C 17 °C 1013.1 hPa ONO 2.5 km/h 5.8 km/h 84.8% 0.0 mm
08:34 19.5 °C 16.5 °C 1013.1 hPa Oeste 2.9 km/h 7.4 km/h 82.9% 0.0 mm
08:39 19.4 °C 16.2 °C 1013.1 hPa Oeste 2.9 km/h 3.7 km/h 82% 0.0 mm
08:44 19.4 °C 16.1 °C 1013.1 hPa Oeste 2.9 km/h 2.3 km/h 81% 0.0 mm
08:49 19.5 °C 16.1 °C 1013.1 hPa Oeste 1.9 km/h 3.9 km/h 80.9% 0.0 mm
08:54 19.6 °C 16 °C 1013.2 hPa Calm     80% 0.0 mm
08:59 19.6 °C 16.1 °C 1013.2 hPa Calm   3.7 km/h 80% 0.0 mm
09:04 19.7 °C 16.2 °C 1013.2 hPa Calm   3.9 km/h 80% 0.0 mm
09:09 19.8 °C 16 °C 1013.4 hPa NO 1 km/h 6.4 km/h 79.1% 0.0 mm
09:14 19.8 °C 15.9 °C 1013.4 hPa ONO 2.9 km/h 7.6 km/h 78.5% 0.0 mm
09:19 19.9 °C 15.9 °C 1013.4 hPa ONO 3.5 km/h 9.5 km/h 78% 0.0 mm
09:24 19.9 °C 16.1 °C 1013.5 hPa NO 4.7 km/h 7.4 km/h 78.5% 0.0 mm
09:29 20 °C 16.2 °C 1013.5 hPa NO 4.2 km/h 5.8 km/h 79% 0.0 mm
09:34 20.1 °C 16.3 °C 1013.5 hPa NO 3.2 km/h 6.4 km/h 79% 0.0 mm
09:39 20.1 °C 16.3 °C 1013.8 hPa ONO 3.1 km/h 8.4 km/h 79% 0.0 mm
09:44 20.2 °C 16.4 °C 1013.8 hPa NO 2.9 km/h 8.4 km/h 79% 0.0 mm
09:49 20.2 °C 16.4 °C 1013.8 hPa NO 3.6 km/h 10 km/h 79% 0.0 mm
09:54 20.2 °C 16.6 °C 1014.0 hPa NO 5 km/h 7.4 km/h 79.8% 0.0 mm
09:59 20.3 °C 16.7 °C 1014.0 hPa NNO 4.5 km/h 6.9 km/h 79.9% 0.0 mm
10:04 20.3 °C 16.6 °C 1014.0 hPa North 3.9 km/h 7.6 km/h 79% 0.0 mm
10:09 20.3 °C 16.7 °C 1014.1 hPa NNE 4.5 km/h 13 km/h 79.9% 0.0 mm
10:14 20.3 °C 16.8 °C 1014.1 hPa NE 5.8 km/h 13 km/h 80.5% 0.0 mm
10:19 20.2 °C 16.8 °C 1014.1 hPa NE 6 km/h 7.6 km/h 81% 0.0 mm
10:24 20.1 °C 16.7 °C 1014.6 hPa ENE 6.4 km/h 7.4 km/h 81% 0.0 mm
10:29 20.1 °C 16.7 °C 1014.6 hPa NE 5.6 km/h 7.4 km/h 81% 0.0 mm
10:34 20.1 °C 16.7 °C 1014.6 hPa NNE 3.9 km/h 11.1 km/h 81% 0.0 mm
10:39 20.1 °C 16.8 °C 1014.6 hPa NNE 5 km/h 16.7 km/h 81.2% 0.0 mm
10:44 20.1 °C 16.9 °C 1014.5 hPa NNE 6.9 km/h 11.9 km/h 82% 0.0 mm
10:49 20 °C 17 °C 1014.5 hPa NNE 6.3 km/h 9.3 km/h 82.7% 0.5 mm
10:54 20 °C 17 °C 1014.8 hPa NNE 5 km/h 9.5 km/h 83% 0.5 mm
10:59 19.9 °C 17 °C 1014.8 hPa ENE 4.6 km/h 7.4 km/h 83.3% 0.8 mm
11:04 19.9 °C 17.2 °C 1014.8 hPa ESE 3.9 km/h 9.3 km/h 84.3% 1.3 mm
11:09 19.8 °C 17.3 °C 1014.8 hPa ESE 4.1 km/h 7.6 km/h 85.2% 1.8 mm
11:14 19.6 °C 17.1 °C 1014.7 hPa Oeste 4.7 km/h 13 km/h 85.4% 2.3 mm
11:19 19.2 °C 16.7 °C 1014.7 hPa OSO 5.4 km/h 10 km/h 85.5% 2.3 mm
11:24 18.9 °C 16.6 °C 1014.7 hPa OSO 6.9 km/h 11.9 km/h 86.5% 2.3 mm
11:29 18.7 °C 16.6 °C 1014.7 hPa Oeste 7.1 km/h 13 km/h 87.7% 2.6 mm
11:34 18.5 °C 16.5 °C 1014.7 hPa ONO 7.6 km/h 11.1 km/h 88.3% 2.6 mm
11:39 18.3 °C 16.4 °C 1014.8 hPa North 6.7 km/h 7.4 km/h 88.6% 3.6 mm
11:44 18.2 °C 16.3 °C 1014.8 hPa NE 5 km/h 9.5 km/h 89% 3.8 mm
11:49 18.1 °C 16.3 °C 1014.8 hPa ENE 5 km/h 8.4 km/h 89% 3.9 mm
11:54 18 °C 16.2 °C 1015.2 hPa ESE 5 km/h 11.1 km/h 89% 5.6 mm
11:59 17.8 °C 16 °C 1015.2 hPa ESE 4.9 km/h 7.4 km/h 89.4% 6.9 mm
12:04 17.7 °C 16 °C 1015.2 hPa Este 4.7 km/h 7.6 km/h 89.6% 7.7 mm
12:09 17.7 °C 16.1 °C 1015.2 hPa North 4.4 km/h 11.1 km/h 90% 8.2 mm
12:14 17.6 °C 16 °C 1015.1 hPa NNO 3.9 km/h 11.1 km/h 90.5% 9.2 mm
12:19 17.6 °C 16.1 °C 1015.1 hPa NNE 4.6 km/h 11.1 km/h 91% 10.0 mm
12:24 17.7 °C 16.3 °C 1015.2 hPa NNE 5.8 km/h 11.1 km/h 91.9% 10.0 mm
12:29 17.7 °C 16.4 °C 1015.2 hPa NNE 6.2 km/h 13.7 km/h 92% 10.2 mm
12:34 17.7 °C 16.5 °C 1015.2 hPa NE 6.9 km/h 13 km/h 92.4% 10.5 mm
12:39 17.8 °C 16.7 °C 1015.2 hPa NNE 7.4 km/h 15.6 km/h 93% 10.3 mm
12:44 17.8 °C 16.7 °C 1015.2 hPa NNO 8.4 km/h 13 km/h 93% 10.0 mm
12:49 17.8 °C 16.7 °C 1015.2 hPa NNO 7.5 km/h 9.3 km/h 93% 9.7 mm
12:54 17.8 °C 16.7 °C 1015.2 hPa NNO 5.8 km/h 7.4 km/h 93.1% 9.4 mm
12:59 17.8 °C 16.9 °C 1014.9 hPa NNO 4.8 km/h 3.9 km/h 94% 6.9 mm
13:04 17.8 °C 16.6 °C 1014.9 hPa ONO 3.2 km/h 11.1 km/h 93% 6.2 mm
13:09 17.7 °C 16.6 °C 1014.9 hPa NNO 3.8 km/h 9.3 km/h 93.6% 4.9 mm
13:14 17.7 °C 16.7 °C 1014.9 hPa NO 5 km/h 7.4 km/h 94% 3.6 mm
13:19 17.7 °C 16.7 °C 1014.9 hPa NO 5 km/h 10 km/h 94% 2.3 mm
13:24 17.7 °C 16.7 °C 1014.9 hPa ONO 5 km/h 9.3 km/h 93.9% 1.8 mm
13:29 17.7 °C 16.8 °C 1014.7 hPa NO 5.3 km/h 9.3 km/h 94% 1.6 mm
13:34 17.9 °C 16.9 °C 1014.7 hPa NO 5.8 km/h 8.4 km/h 94% 1.3 mm
13:39 17.9 °C 17 °C 1014.7 hPa NNO 5.4 km/h 10.3 km/h 94% 1.0 mm
13:44 18 °C 17 °C 1014.5 hPa NO 4.7 km/h 13 km/h 93.6% 0.8 mm
13:49 17.9 °C 16.8 °C 1014.5 hPa ONO 5.3 km/h 13 km/h 93% 0.3 mm
13:54 17.9 °C 16.8 °C 1014.6 hPa ONO 6.4 km/h 9.3 km/h 93% 0.3 mm
13:59 17.9 °C 16.8 °C 1014.6 hPa NNO 5.8 km/h 9.3 km/h 93% 0.3 mm
14:04 17.9 °C 16.7 °C 1014.6 hPa NO 4.7 km/h 11.9 km/h 92.6% 0.0 mm
14:09 17.9 °C 16.6 °C 1014.6 hPa NNO 5.1 km/h 11.1 km/h 92.2% 0.0 mm
14:14 18.1 °C 16.9 °C 1014.6 hPa NNO 5.8 km/h 10 km/h 92.4% 0.0 mm
14:19 18.1 °C 16.8 °C 1014.6 hPa NNO 5.4 km/h 11.1 km/h 92% 0.0 mm
14:24 18.2 °C 16.9 °C 1014.6 hPa NNO 4.7 km/h 10 km/h 92% 0.0 mm
14:29 18.2 °C 16.7 °C 1014.5 hPa North 5 km/h 9.3 km/h 91% 0.0 mm
14:34 18.2 °C 16.7 °C 1014.5 hPa North 5.8 km/h 11.9 km/h 90.7% 0.0 mm
14:39 18.2 °C 16.6 °C 1014.6 hPa NNE 6 km/h 11.1 km/h 90% 0.0 mm
14:44 18.3 °C 16.6 °C 1014.6 hPa North 6.4 km/h 7.6 km/h 90% 0.0 mm
14:49 18.3 °C 16.6 °C 1014.6 hPa NNO 6.2 km/h 11.1 km/h 90% 0.5 mm
14:54 18.3 °C 16.7 °C 1014.7 hPa NNE 5.8 km/h 11.1 km/h 90% 0.7 mm
14:59 18.2 °C 16.6 °C 1014.7 hPa NNE 6.2 km/h 16.4 km/h 90% 1.0 mm
15:04 18 °C 16.3 °C 1014.7 hPa NNE 6.9 km/h 16.7 km/h 89.9% 1.3 mm
15:09 17.9 °C 16.2 °C 1014.8 hPa NE 7.8 km/h 13 km/h 90% 1.5 mm
15:14 17.9 °C 16.3 °C 1014.8 hPa NNE 9.5 km/h 9.3 km/h 90.2% 1.8 mm
15:18 17.9 °C 16.3 °C 1014.8 hPa NE 8.8 km/h 12.2 km/h 90.4% 1.8 mm
15:24 17.7 °C 16.1 °C 1014.9 hPa NE 5.8 km/h 14.8 km/h 90.3% 1.8 mm
15:29 17.7 °C 16.2 °C 1014.9 hPa NE 6.4 km/h 11.1 km/h 90.7% 1.8 mm
15:34 17.7 °C 16.2 °C 1014.9 hPa NNE 7.6 km/h 13 km/h 90.9% 1.8 mm
15:39 17.7 °C 16.2 °C 1015.0 hPa NE 7.2 km/h 11.1 km/h 91% 1.8 mm
15:44 17.7 °C 16.3 °C 1015.0 hPa NNE 6.4 km/h 11.1 km/h 91% 1.8 mm
15:49 17.8 °C 16.3 °C 1015.0 hPa NNE 6.4 km/h 13.7 km/h 91% 1.6 mm
15:54 17.8 °C 16.4 °C 1015.1 hPa NNE 6.4 km/h 20.9 km/h 91% 1.3 mm
15:59 18 °C 16.3 °C 1015.1 hPa NNE 8.2 km/h 20.4 km/h 90% 1.1 mm
16:04 18.1 °C 16.5 °C 1015.1 hPa NE 11.1 km/h 17.2 km/h 90% 0.8 mm
16:09 18.2 °C 16.6 °C 1015.1 hPa NE 10.8 km/h 29.1 km/h 90% 0.5 mm
16:14 18.2 °C 16.3 °C 1015.0 hPa NE 10.3 km/h 29.6 km/h 89% 0.3 mm
16:19 18.2 °C 16.3 °C 1015.0 hPa NE 11.5 km/h 24.1 km/h 89% 0.0 mm
16:24 18.2 °C 16.2 °C 1015.0 hPa NE 13.7 km/h 27.8 km/h 88.2% 0.0 mm
16:29 18.2 °C 16 °C 1015.0 hPa NE 13.8 km/h 29.6 km/h 87.1% 0.0 mm
16:34 18.2 °C 15.9 °C 1015.0 hPa NE 14 km/h 29.6 km/h 86.3% 0.0 mm
16:39 18.3 °C 15.9 °C 1015.3 hPa NE 14 km/h 27.4 km/h 86% 0.0 mm
16:44 18.3 °C 15.9 °C 1015.3 hPa NE 14 km/h 33.3 km/h 86% 0.0 mm
16:49 18.3 °C 15.9 °C 1015.3 hPa NNE 14.8 km/h 24.1 km/h 86% 0.0 mm
16:54 18.3 °C 15.9 °C 1015.5 hPa NNE 16.4 km/h 24.1 km/h 86% 0.0 mm
16:59 18.3 °C 15.9 °C 1015.5 hPa NNE 15.8 km/h 24.1 km/h 86.2% 0.0 mm
17:04 18.3 °C 15.9 °C 1015.5 hPa NNE 14.8 km/h 29.6 km/h 86% 0.0 mm
17:09 18.4 °C 15.9 °C 1015.7 hPa NE 15.6 km/h 27.8 km/h 85.7% 0.0 mm
17:14 18.4 °C 16 °C 1015.7 hPa NNE 17.2 km/h 26.2 km/h 85.9% 0.0 mm
17:19 18.5 °C 16 °C 1015.7 hPa NNE 16.8 km/h 25.9 km/h 85.5% 0.0 mm
17:24 18.3 °C 15.8 °C 1015.8 hPa NE 16.1 km/h 38.9 km/h 85% 0.0 mm
17:29 18.2 °C 15.6 °C 1015.8 hPa NNE 16.8 km/h 33.3 km/h 85% 0.0 mm
17:34 18.2 °C 15.7 °C 1015.8 hPa NE 18 km/h 33.3 km/h 85.9% 0.0 mm
17:39 18.1 °C 15.7 °C 1015.8 hPa NNE 17.7 km/h 24.5 km/h 86% 0.0 mm
17:44 18.1 °C 15.9 °C 1015.8 hPa NE 17.2 km/h 29.6 km/h 87% 0.0 mm
17:49 18.1 °C 15.9 °C 1015.8 hPa NE 15.9 km/h 22.2 km/h 87% 0.0 mm
17:54 18.1 °C 15.9 °C 1015.9 hPa NE 13.7 km/h 30.6 km/h 87% 0.0 mm
17:59 18.1 °C 15.7 °C 1015.9 hPa NE 14.8 km/h 27.8 km/h 86.1% 0.0 mm
18:04 18.1 °C 15.7 °C 1015.9 hPa NE 16.4 km/h 26.2 km/h 86% 0.0 mm
18:09 18.1 °C 15.6 °C 1016.2 hPa NE 16.3 km/h 27.8 km/h 85.1% 0.0 mm
18:14 18.1 °C 15.4 °C 1016.2 hPa NE 16.1 km/h 29.6 km/h 84.5% 0.0 mm
18:19 18 °C 15.3 °C 1016.2 hPa NE 16.2 km/h 27.8 km/h 84% 0.0 mm
18:24 18 °C 15.2 °C 1016.2 hPa NE 16.4 km/h 26.2 km/h 84% 0.0 mm
18:29 17.9 °C 15.2 °C 1016.2 hPa NNE 15.8 km/h 25.9 km/h 84% 0.0 mm
18:34 17.9 °C 15.2 °C 1016.2 hPa NNE 14.8 km/h 18.5 km/h 84% 0.0 mm
18:39 17.9 °C 15.2 °C 1016.5 hPa NE 13.2 km/h 22.5 km/h 84% 0.0 mm
18:44 17.9 °C 15.3 °C 1016.5 hPa NE 10.3 km/h 22.5 km/h 84.6% 0.0 mm
18:49 17.9 °C 15.2 °C 1016.5 hPa NE 11.3 km/h 26.2 km/h 84% 0.0 mm
18:54 17.9 °C 15.1 °C 1016.7 hPa NE 13 km/h 25.9 km/h 83.5% 0.0 mm
18:59 17.9 °C 14.9 °C 1016.7 hPa NE 14.3 km/h 34.3 km/h 82.7% 0.0 mm
19:04 17.9 °C 14.6 °C 1016.7 hPa NE 16.1 km/h 33.3 km/h 81.1% 0.0 mm
19:09 17.9 °C 14.3 °C 1016.7 hPa NE 16.9 km/h 35.2 km/h 79.6% 0.0 mm
19:14 17.9 °C 14.2 °C 1016.7 hPa NE 18.3 km/h 31.5 km/h 79% 0.0 mm
19:19 17.9 °C 14.2 °C 1016.7 hPa NE 17.2 km/h 20.9 km/h 79% 0.0 mm
19:24 17.9 °C 14.2 °C 1016.9 hPa NE 14.8 km/h 24.5 km/h 79% 0.0 mm
19:29 17.8 °C 14.1 °C 1016.9 hPa NE 15.1 km/h 22.2 km/h 79% 0.0 mm
19:34 17.8 °C 14.2 °C 1016.9 hPa NE 15.6 km/h 22.2 km/h 79.8% 0.0 mm
19:39 17.8 °C 14.3 °C 1017.1 hPa NE 14.9 km/h 22.2 km/h 80% 0.0 mm
19:44 17.7 °C 14.2 °C 1017.1 hPa NE 13.7 km/h 18.5 km/h 80% 0.0 mm
19:49 17.7 °C 14.2 °C 1017.1 hPa NE 12.5 km/h 16.7 km/h 80% 0.0 mm
19:54 17.7 °C 14.2 °C 1017.2 hPa NNE 10.3 km/h 20.4 km/h 80% 0.0 mm
19:59 17.6 °C 14.1 °C 1017.2 hPa NE 11 km/h 18.5 km/h 80% 0.0 mm
20:04 17.6 °C 14.1 °C 1017.2 hPa NE 12.2 km/h 22.2 km/h 80% 0.0 mm
20:09 17.5 °C 14 °C 1017.2 hPa NE 11.4 km/h 16.7 km/h 80% 0.0 mm
20:14 17.4 °C 13.9 °C 1017.2 hPa NE 10 km/h 14.8 km/h 80% 0.0 mm
20:19 17.3 °C 13.8 °C 1017.2 hPa NE 9.5 km/h 13.7 km/h 80% 0.0 mm
20:24 17.3 °C 13.8 °C 1017.2 hPa NE 8.7 km/h 13 km/h 80% 0.0 mm
20:29 17.2 °C 13.9 °C 1017.2 hPa NNE 8.6 km/h 11.1 km/h 80.9% 0.0 mm
20:34 17.2 °C 13.9 °C 1017.2 hPa NNE 8.4 km/h 11.1 km/h 81% 0.0 mm
20:39 17.2 °C 13.9 °C 1017.4 hPa NNE 7.5 km/h 8.4 km/h 81% 0.0 mm
20:44 17.2 °C 13.9 °C 1017.4 hPa NE 5.8 km/h 8.4 km/h 81% 0.0 mm
20:49 17.2 °C 13.9 °C 1017.4 hPa NE 4.9 km/h 5.8 km/h 81% 0.0 mm
20:54 17.2 °C 13.9 °C 1017.6 hPa NE 3.2 km/h 5.8 km/h 81% 0.0 mm
20:59 17.1 °C 14 °C 1017.6 hPa NE 3.1 km/h 5.6 km/h 81.7% 0.0 mm
21:04 17.1 °C 14 °C 1017.6 hPa NE 2.9 km/h 3.7 km/h 82% 0.0 mm
21:09 17.1 °C 13.9 °C 1017.7 hPa NE 1.9 km/h 3.9 km/h 81.5% 0.0 mm
21:14 17.1 °C 13.9 °C 1017.7 hPa Calm   5.6 km/h 81.7% 0.0 mm
21:19 17.1 °C 14 °C 1017.7 hPa NO 1.1 km/h 5.8 km/h 82% 0.0 mm
21:24 17 °C 13.9 °C 1017.7 hPa ONO 3.2 km/h 5.8 km/h 82% 0.0 mm
21:29 16.9 °C 13.8 °C 1017.7 hPa ONO 3.4 km/h 9.3 km/h 82% 0.0 mm
21:34 16.8 °C 13.8 °C 1017.7 hPa ONO 3.9 km/h 9.5 km/h 83% 0.0 mm
21:39 16.7 °C 13.8 °C 1018.0 hPa Oeste 4.8 km/h 9.3 km/h 83% 0.0 mm
21:44 16.6 °C 13.7 °C 1018.0 hPa ONO 6.4 km/h 9.3 km/h 83% 0.0 mm
21:49 16.5 °C 13.7 °C 1018.0 hPa ONO 6.2 km/h 8.4 km/h 83.9% 0.0 mm
21:54 16.4 °C 13.7 °C 1018.2 hPa ONO 5.8 km/h 7.4 km/h 84% 0.0 mm
21:59 16.4 °C 13.7 °C 1018.2 hPa ONO 5.1 km/h 7.4 km/h 84% 0.0 mm
22:04 16.4 °C 13.7 °C 1018.2 hPa Oeste 3.9 km/h 5.8 km/h 84% 0.0 mm
22:09 16.4 °C 13.7 °C 1018.3 hPa Oeste 3.6 km/h 5.8 km/h 84% 0.0 mm
22:14 16.4 °C 13.7 °C 1018.3 hPa Oeste 3.2 km/h 5.6 km/h 84% 0.0 mm
22:19 16.4 °C 13.7 °C 1018.3 hPa Oeste 2.9 km/h 5.8 km/h 84% 0.0 mm
22:24 16.3 °C 13.6 °C 1018.3 hPa Oeste 2.3 km/h 7.4 km/h 84% 0.0 mm
22:29 16.3 °C 13.6 °C 1018.2 hPa Oeste 2.6 km/h 5.8 km/h 84% 0.0 mm
22:34 16.3 °C 13.7 °C 1018.2 hPa Oeste 3.2 km/h 5.6 km/h 84.6% 0.0 mm
22:39 16.3 °C 13.8 °C 1018.4 hPa Oeste 3.1 km/h 3.7 km/h 85% 0.0 mm
22:44 16.2 °C 13.7 °C 1018.4 hPa Oeste 2.9 km/h 4.7 km/h 85% 0.0 mm
22:49 16.2 °C 13.7 °C 1018.4 hPa Oeste 2.7 km/h 5 km/h 85% 0.0 mm
22:54 16.2 °C 13.6 °C 1018.6 hPa OSO 2.3 km/h 7.4 km/h 85% 0.0 mm
22:59 16.2 °C 13.6 °C 1018.6 hPa SSO 3.2 km/h 9.3 km/h 85% 0.0 mm
23:04 16.2 °C 13.7 °C 1018.6 hPa Sur 4.7 km/h 7.4 km/h 85% 0.0 mm
23:09 16.2 °C 13.7 °C 1018.8 hPa Sur 4.4 km/h 5.8 km/h 85% 0.0 mm
23:14 16.3 °C 13.8 °C 1018.8 hPa SSO 3.9 km/h 8.4 km/h 85% 0.0 mm
23:19 16.3 °C 13.6 °C 1018.8 hPa OSO 3.9 km/h 7.4 km/h 84.2% 0.0 mm
23:24 16.3 °C 13.6 °C 1018.8 hPa OSO 3.9 km/h 7.4 km/h 84% 0.0 mm
23:29 16.4 °C 13.6 °C 1018.8 hPa SSO 4.1 km/h 7.6 km/h 84% 0.0 mm
23:34 16.4 °C 13.7 °C 1018.8 hPa Sur 4.7 km/h 9.3 km/h 84% 0.0 mm
23:39 16.3 °C 13.6 °C 1019.0 hPa SSE 5.3 km/h 10 km/h 84% 0.0 mm
23:44 16.3 °C 13.7 °C 1019.0 hPa Sur 6.4 km/h 11.1 km/h 84.7% 0.0 mm
23:49 16.2 °C 13.7 °C 1019.0 hPa Sur 6.6 km/h 9.5 km/h 85% 0.0 mm
23:54 16.1 °C 13.7 °C 1019.0 hPa SSO 6.9 km/h 10 km/h 85.7% 0.0 mm
23:59 16.1 °C 13.8 °C 1019.0 hPa SO 6.9 km/h 9.5 km/h 86% 0.0 mm
Murcia-Puente Tocinos, Espa?a
Compliments of Weather Underground - 3 mb

La estación de MeteoMurcia.com, publica sus datos en los siguientes proyectos:

Weather Underground PWS IMURCIAP2 Meteoclimatic www.awekas.at

W3Counter
Web Analytics